Felt, OK

7:53 AM CST on December 16, 2019 (GMT -0600)
Dalhart | | Change Station
Active Advisory: Winter Weather Advisory

Elev 4350 ft 36.45 °N, 102.79 °W | Updated 14 seconds ago

Overcast
Overcast
25 °F
Feels Like 25 °F
N
1.8
Wind Variable Wind from NNE
Gusts 2.2 mph

Today
High -- | Low -- °F
--% Chance of Precip.
Yesterday
High -- | Low -- °F
Precip. -- in
Pressure 30.02 in
Visibility 3.0 miles
Clouds Scattered Clouds 700 ft
Mostly Cloudy 2300 ft
Overcast 4300 ft
Windchill 25 °F
Dew Point 23 °F
Humidity 94%
Rainfall 0.00 in
Snow Depth Not available.
7:56 AM 5:36 PM
Waning Gibbous, 78% visible
SPECI KCAO 161337Z AUTO 01010KT 3SM -SN BR SCT007 BKN023 OVC043 M05/M06 A3002 RMK AO2 P0001 T10501061
Pressure 30.02 in
Visibility 3.0 miles
Clouds Scattered Clouds 700 ft
Mostly Cloudy 2300 ft
Overcast 4300 ft
Windchill 25 °F
Dew Point 23 °F
Humidity 94%
Rainfall 0.00 in
Snow Depth Not available.
7:56 AM 5:36 PM
Waning Gibbous, 78% visible
SPECI KCAO 161337Z AUTO 01010KT 3SM -SN BR SCT007 BKN023 OVC043 M05/M06 A3002 RMK AO2 P0001 T10501061

Get Your Daily Forecast Email!

Thanks for signing up!

Be on the lookout for a verification email in your inbox.

You'll start receiving severe weather alerts in your inbox..

×

10-Day Weather Forecast

Almanac

Astronomy

Dec. 16, 2019 Rise Set
Actual Time
Civil Twilight
Nautical Twilight
Astronomical Twilight
Moon
Length of Visible Light
Length of Day
Tomorrow will be .
, % of the Moon is Illuminated

Today's Extremes

State Highs State Lows

Community

WunderPhotos

Category 6

Welcome to Category 6. This is the collective home for Weather Underground's featured writeups by Dr. Jeff Masters (right), Bob Henson (left), Chris Burt, and other regular contributors.

Nearby

Air Quality

  Air Quality AQ Index Pollutant
Not available.

Snow Depth

Station Depth Elevation

Earthquake Activity

City Distance Mag. Time & Date
Minimum magnitude displayed is 2.5.

Coastal Water Temperatures

Place Temperature

Stations

Nearby Weather Stations

Station Location Temp. Windchill Dew Point Humidity Wind Precip. Elev Updated Type
                   

Watches & Warnings

Winter Weather Advisory
Issued: 4:39 AM CST Dec. 16, 2019 – National Weather Service

... Winter Weather Advisory remains in effect until noon CST
today...

* what... snow expected. Total snow accumulations of up to one to two
inches with localized higher amounts possible.

* Where... Oklahoma Panhandle and northern Texas Panhandle.

* When... until noon today.

* Impacts... plan on slippery Road conditions. The hazardous
conditions could impact the morning commute.

Precautionary/preparedness actions...

Slow down and use caution while traveling.

The latest Road conditions for the state you are calling from can
be obtained by calling 5 1 1.



Schneider